Time;durP1;ratioP1;P1;durP2;ratioP2;P2;SDS_P1;SDS_P2;PMS_P1;PMS_P2;Temp;Humidity;BMP_temperature;BMP_pressure;BME280_temperature;BME280_humidity;BME280_pressure;Samples;Min_cycle;Max_cycle;Signal;HPM_P1;HPM_P2
2022/02/04 00:22:54;;;;;;;16.67;8.73;;;;;;;2.27;92.86;100498.50;5137841;27;20043;-74
2022/02/04 00:25:31;;;;;;;;;;;;;;;2.32;93.38;100513.31;5138015;27;20043;-71
2022/02/04 00:28:09;;;;;;;19.52;9.07;;;;;;;2.36;94.73;100513.22;5137583;27;20322;-72
2022/02/04 00:30:43;;;;;;;20.20;8.73;;;;;;;2.43;92.53;100498.16;5137625;27;20039;-71
2022/02/04 00:33:16;;;;;;;21.27;8.27;;;;;;;2.36;92.63;100491.28;5137808;27;20050;-71
2022/02/04 00:35:57;;;;;;;17.23;8.68;;;;;;;2.28;93.83;100484.44;5137605;27;20042;-72
2022/02/04 00:38:29;;;;;;;20.15;8.82;;;;;;;2.34;93.58;100491.34;5141552;27;20150;-71
2022/02/04 00:41:03;;;;;;;18.45;8.18;;;;;;;2.25;93.09;100481.88;5141305;27;20039;-71
2022/02/04 00:43:32;;;;;;;15.80;7.65;;;;;;;2.26;93.27;100482.75;5138131;27;20399;-72
2022/02/04 00:46:09;;;;;;;14.27;7.53;;;;;;;2.20;93.86;100481.09;5139123;27;20035;-71
2022/02/04 00:49:04;;;;;;;14.50;7.07;;;;;;;2.27;93.14;100480.06;5137329;27;20053;-71
2022/02/04 00:51:39;;;;;;;15.32;7.65;;;;;;;2.22;94.10;100474.06;5137286;27;20051;-71
2022/02/04 00:54:22;;;;;;;16.42;7.13;;;;;;;2.16;93.03;100468.91;5137567;27;20103;-71
2022/02/04 00:57:08;;;;;;;13.57;7.10;;;;;;;2.35;91.89;100463.25;5137427;27;20043;-71
2022/02/04 01:13:35;;;;;;;14.55;6.63;;;;;;;2.14;93.57;100457.56;5137115;27;20045;-71
2022/02/04 01:27:09;;;;;;;13.02;6.22;;;;;;;2.02;96.11;100439.41;5136660;27;20062;-71
2022/02/04 01:29:48;;;;;;;10.63;6.32;;;;;;;2.06;95.88;100430.56;5136222;27;20050;-72
2022/02/04 01:32:16;;;;;;;12.90;6.47;;;;;;;2.04;95.95;100436.75;5136763;27;20063;-71
2022/02/04 01:34:46;;;;;;;14.43;6.65;;;;;;;2.07;95.99;100436.69;5136350;27;20075;-71
2022/02/04 01:37:15;;;;;;;15.40;6.72;;;;;;;2.15;94.35;100432.97;5136503;27;20125;-71
2022/02/04 01:39:43;;;;;;;12.57;6.55;;;;;;;2.04;95.76;100428.88;5136255;27;20472;-72
2022/02/04 01:42:11;;;;;;;13.60;6.22;;;;;;;1.98;96.52;100430.72;5136355;27;20077;-72
2022/02/04 01:44:40;;;;;;;17.27;6.25;;;;;;;1.97;97.08;100420.25;5136215;27;20084;-72
2022/02/04 01:47:08;;;;;;;15.63;7.10;;;;;;;2.04;95.93;100413.09;5136307;27;20123;-71
2022/02/04 01:49:38;;;;;;;13.57;6.53;;;;;;;2.11;94.91;100407.63;5136092;27;20446;-72
2022/02/04 01:52:08;;;;;;;14.55;6.88;;;;;;;2.07;95.46;100394.59;5136041;27;20043;-71
2022/02/04 01:54:37;;;;;;;12.77;5.95;;;;;;;2.02;96.20;100392.03;5136010;27;20047;-72
2022/02/04 01:57:06;;;;;;;14.98;6.82;;;;;;;2.07;96.16;100395.44;5136442;27;20040;-72
2022/02/04 01:59:34;;;;;;;13.93;7.13;;;;;;;2.06;96.54;100387.59;5135836;27;20050;-79
2022/02/04 02:02:03;;;;;;;10.85;6.63;;;;;;;2.20;94.58;100390.75;5136084;27;20047;-71
2022/02/04 02:04:32;;;;;;;14.10;6.80;;;;;;;2.17;95.19;100380.31;5135834;27;20400;-71
2022/02/04 02:07:04;;;;;;;12.57;7.13;;;;;;;2.14;95.28;100373.34;5135863;27;20050;-71
2022/02/04 02:09:44;;;;;;;17.45;6.80;;;;;;;2.21;95.34;100366.16;5135954;27;20118;-71
2022/02/04 02:12:17;;;;;;;13.07;6.75;;;;;;;2.18;95.29;100367.09;5135896;27;20092;-71
2022/02/04 02:14:46;;;;;;;16.15;6.63;;;;;;;2.14;96.48;100364.59;5117226;27;20051;-72
2022/02/04 02:34:30;;;;;;;13.13;5.20;;;;;;;2.22;95.68;100363.53;5135239;27;20104;-71
2022/02/04 02:45:48;;;;;;;10.77;5.18;;;;;;;2.14;94.95;100344.41;5088029;28;20047;-71
2022/02/04 02:48:33;;;;;;;12.75;5.45;;;;;;;2.19;94.75;100342.50;5131795;28;20047;-71
2022/02/04 02:51:35;;;;;;;9.57;5.32;;;;;;;2.42;94.21;100325.31;5131395;28;20067;-71
2022/02/04 02:54:16;;;;;;;11.13;5.28;;;;;;;2.24;94.21;100326.63;5131665;28;20096;-71
2022/02/04 02:57:11;;;;;;;10.90;4.72;;;;;;;2.27;94.04;100319.50;5131291;28;20040;-72
2022/02/04 02:59:48;;;;;;;11.48;5.30;;;;;;;2.27;94.45;100324.78;5131231;28;20044;-72
2022/02/04 03:02:16;;;;;;;9.85;4.80;;;;;;;2.36;93.22;100325.44;5131321;28;20043;-71
2022/02/04 03:04:45;;;;;;;13.70;5.03;;;;;;;2.32;93.46;100329.03;5131037;28;20040;-72
2022/02/04 03:07:13;;;;;;;12.57;4.88;;;;;;;2.34;92.44;100327.25;5131239;28;20058;-71
2022/02/04 03:09:41;;;;;;;13.57;4.65;;;;;;;2.32;92.02;100331.69;5130644;28;20049;-72
2022/02/04 03:12:13;;;;;;;9.93;4.53;;;;;;;2.33;91.83;100330.81;5131334;28;20384;-71
2022/02/04 03:14:43;;;;;;;9.02;5.10;;;;;;;2.48;89.83;100318.09;5131009;28;20043;-72
2022/02/04 03:17:14;;;;;;;10.35;4.72;;;;;;;2.57;88.46;100317.00;5131089;28;20104;-71
2022/02/04 03:19:48;;;;;;;12.20;4.45;;;;;;;2.50;88.27;100315.41;5130573;28;20100;-71
2022/02/04 03:22:16;;;;;;;15.35;4.72;;;;;;;2.47;88.95;100320.78;5134098;28;20062;-72
2022/02/04 03:24:53;;;;;;;13.18;4.82;;;;;;;2.40;88.82;100330.59;5133524;28;20122;-72
2022/02/04 03:27:23;;;;;;;11.43;5.22;;;;;;;2.43;88.79;100334.94;5112359;28;20146;-71
2022/02/04 03:30:03;;;;;;;12.20;4.95;;;;;;;2.59;86.85;100325.69;5130717;28;20067;-72
2022/02/04 03:32:35;;;;;;;11.25;4.63;;;;;;;2.51;87.82;100327.66;5130976;28;20047;-71
2022/02/04 03:35:04;;;;;;;10.70;4.72;;;;;;;2.49;87.67;100324.22;5130269;28;20039;-71
2022/02/04 03:37:32;;;;;;;9.50;5.13;;;;;;;2.50;87.33;100320.69;5130628;28;20434;-71
2022/02/04 03:40:00;;;;;;;12.27;5.35;;;;;;;2.51;87.05;100323.28;5130440;28;20457;-72
2022/02/04 03:42:29;;;;;;;13.30;5.50;;;;;;;2.57;86.05;100327.53;5130652;28;20072;-71
2022/02/04 03:44:59;;;;;;;10.10;5.03;;;;;;;2.59;85.84;100317.81;5130232;28;20100;-71
2022/02/04 03:47:27;;;;;;;13.45;5.78;;;;;;;2.59;86.92;100308.13;5130197;28;20044;-71
2022/02/04 03:50:00;;;;;;;9.88;4.90;;;;;;;2.60;86.68;100306.34;5130313;28;20043;-72
2022/02/04 03:52:28;;;;;;;9.25;4.80;;;;;;;2.47;87.38;100299.69;5125598;28;20045;-71
2022/02/04 03:54:57;;;;;;;13.60;5.28;;;;;;;2.58;86.09;100295.00;5116123;28;20092;-72
2022/02/04 03:57:25;;;;;;;12.18;5.22;;;;;;;2.60;85.65;100290.56;5116478;28;20407;-71
2022/02/04 03:59:54;;;;;;;12.18;5.22;;;;;;;2.57;87.03;100290.66;5116862;28;20123;-71
2022/02/04 04:02:24;;;;;;;11.43;5.32;;;;;;;2.50;87.90;100284.69;5116584;28;20167;-71
2022/02/04 04:04:52;;;;;;;12.13;5.30;;;;;;;2.52;86.37;100293.44;5116109;28;20043;-72
2022/02/04 04:07:21;;;;;;;12.68;5.15;;;;;;;2.54;87.05;100296.00;5116035;28;20036;-71
2022/02/04 04:09:54;;;;;;;13.55;5.07;;;;;;;2.58;86.64;100289.75;5116154;28;20389;-72
2022/02/04 04:12:24;;;;;;;11.88;5.00;;;;;;;2.50;88.73;100292.56;5116632;28;20457;-72
2022/02/04 04:14:55;;;;;;;14.68;5.72;;;;;;;2.55;86.70;100289.84;5098028;28;20130;-71
2022/02/04 04:17:25;;;;;;;14.40;5.90;;;;;;;2.50;87.58;100291.72;5116323;28;20412;-72
2022/02/04 04:19:53;;;;;;;10.65;5.30;;;;;;;2.53;87.01;100289.03;5115991;28;20039;-72
2022/02/04 04:22:21;;;;;;;14.15;6.28;;;;;;;2.46;88.33;100296.22;5097974;28;20047;-71
2022/02/04 04:24:49;;;;;;;11.82;6.00;;;;;;;2.51;87.42;100293.44;5115956;28;20423;-73
2022/02/04 04:27:17;;;;;;;14.45;6.10;;;;;;;2.43;88.39;100288.41;5116094;28;20071;-71
2022/02/04 04:29:47;;;;;;;13.10;6.38;;;;;;;2.40;88.23;100298.13;5115723;28;20056;-73
2022/02/04 04:32:15;;;;;;;13.77;6.38;;;;;;;2.37;88.47;100299.06;5115914;28;20062;-72
2022/02/04 04:34:45;;;;;;;13.27;6.93;;;;;;;2.46;88.13;100293.56;5115515;28;20394;-72
2022/02/04 04:37:13;;;;;;;16.17;7.10;;;;;;;2.57;86.13;100296.78;5115823;28;20044;-71
2022/02/04 04:39:52;;;;;;;13.88;6.35;;;;;;;2.55;85.88;100293.34;5115569;28;20047;-71
2022/02/04 04:42:31;;;;;;;14.23;6.47;;;;;;;2.52;86.47;100296.06;5115562;28;20043;-72
2022/02/04 04:45:19;;;;;;;14.43;6.82;;;;;;;2.49;86.49;100297.88;5115494;28;20044;-72
2022/02/04 05:29:45;;;;;;;16.95;6.63;;;;;;;2.47;85.61;100289.19;5094054;28;20082;-71
2022/02/04 05:32:13;;;;;;;13.02;6.28;;;;;;;2.58;85.17;100277.44;5114439;28;20047;-71
2022/02/04 05:34:41;;;;;;;13.98;6.47;;;;;;;2.46;86.11;100282.19;5114734;28;20477;-71
2022/02/04 05:37:11;;;;;;;17.98;7.00;;;;;;;2.32;89.52;100286.94;5114147;28;20043;-71
2022/02/04 05:39:50;;;;;;;11.25;6.28;;;;;;;2.27;90.27;100287.06;5114301;28;20039;-71
2022/02/04 05:42:22;;;;;;;12.35;5.80;;;;;;;2.33;89.62;100288.69;5114414;28;20051;-72
2022/02/04 05:44:56;;;;;;;14.93;6.45;;;;;;;2.41;88.37;100300.72;5114362;28;20042;-73
2022/02/04 05:47:25;;;;;;;12.32;5.65;;;;;;;2.53;85.68;100295.16;5114545;28;20070;-71
2022/02/04 05:50:09;;;;;;;12.35;5.70;;;;;;;2.49;87.04;100297.88;5114172;28;20047;-71
2022/02/04 05:52:54;;;;;;;18.20;5.57;;;;;;;2.60;85.66;100298.47;5114121;28;20484;-71
2022/02/04 05:55:40;;;;;;;14.95;6.32;;;;;;;2.58;86.56;100293.25;5114403;28;20092;-70
2022/02/04 05:58:23;;;;;;;12.02;5.70;;;;;;;2.45;86.47;100296.25;5113821;28;20043;-72
2022/02/04 06:01:00;;;;;;;14.43;5.95;;;;;;;2.35;87.36;100295.63;5113740;28;20036;-77
2022/02/04 06:03:38;;;;;;;16.48;6.50;;;;;;;2.46;86.33;100298.84;5114147;28;20074;-72
2022/02/04 06:06:27;;;;;;;12.77;6.10;;;;;;;2.27;89.75;100303.72;5096662;28;20055;-72
2022/02/04 06:12:02;;;;;;;;;;;;;;;2.09;91.47;100306.81;5066361;28;20058;-72
2022/02/04 06:14:47;;;;;;;14.68;5.70;;;;;;;1.99;92.19;100294.78;5114027;28;20355;-71
2022/02/04 06:22:50;;;;;;;12.38;5.20;;;;;;;1.96;92.05;100305.38;5113769;28;20047;-71
2022/02/04 06:25:19;;;;;;;13.23;4.97;;;;;;;1.97;92.73;100315.00;5113397;28;20043;-72
2022/02/04 06:27:49;;;;;;;13.50;5.78;;;;;;;1.98;93.01;100312.34;5113452;28;20085;-72
2022/02/04 06:30:17;;;;;;;14.15;5.20;;;;;;;2.01;93.19;100304.34;5113335;28;20046;-72
2022/02/04 06:32:45;;;;;;;11.95;5.40;;;;;;;1.98;92.58;100308.84;5113685;28;20100;-71
2022/02/04 06:35:16;;;;;;;18.58;5.70;;;;;;;2.04;92.68;100308.69;5113531;28;20039;-72
2022/02/04 06:37:44;;;;;;;10.43;5.28;;;;;;;2.12;91.19;100309.34;5113567;28;20517;-72
2022/02/04 06:40:13;;;;;;;12.30;5.32;;;;;;;2.15;91.56;100305.81;5113248;28;20491;-72
2022/02/04 06:42:41;;;;;;;16.08;5.80;;;;;;;2.36;90.17;100317.56;5113290;28;20047;-71
2022/02/04 06:45:11;;;;;;;11.88;5.15;;;;;;;2.43;90.35;100313.88;5113268;28;20093;-72
2022/02/04 06:47:39;;;;;;;12.35;5.18;;;;;;;2.49;89.44;100316.31;5113537;28;20047;-71
2022/02/04 06:50:08;;;;;;;12.13;4.78;;;;;;;2.68;87.24;100309.66;5113204;28;20369;-71
2022/02/04 06:52:37;;;;;;;13.38;5.20;;;;;;;2.71;87.21;100306.09;5113429;28;20043;-72
2022/02/04 06:55:07;;;;;;;14.27;6.07;;;;;;;2.84;85.38;100305.72;5113174;28;20528;-70
2022/02/04 06:57:36;;;;;;;13.68;5.50;;;;;;;2.98;84.18;100307.09;5113442;28;20484;-71
2022/02/04 07:00:06;;;;;;;13.68;5.65;;;;;;;2.96;84.34;100316.81;5113194;28;20048;-72
2022/02/04 07:02:36;;;;;;;13.90;5.57;;;;;;;2.94;84.20;100311.59;5113354;28;20043;-71
2022/02/04 07:05:10;;;;;;;16.40;5.72;;;;;;;2.95;82.16;100315.09;5113080;28;20043;-71
2022/02/04 07:07:40;;;;;;;15.32;5.43;;;;;;;3.08;82.18;100319.09;5113104;28;20130;-71
2022/02/04 07:10:16;;;;;;;13.70;5.00;;;;;;;3.17;81.35;100317.06;5112638;28;20039;-72
2022/02/04 07:12:52;;;;;;;14.68;5.55;;;;;;;3.10;82.25;100323.44;5113462;28;20127;-71
2022/02/04 07:20:49;;;;;;;14.70;5.50;;;;;;;2.92;81.83;100333.63;5094363;28;20408;-71
2022/02/04 07:23:17;;;;;;;15.57;5.80;;;;;;;2.87;81.96;100342.50;5112539;28;20044;-71
2022/02/04 07:25:46;;;;;;;15.60;5.65;;;;;;;2.90;82.62;100348.63;5112988;28;20123;-71
2022/02/04 07:28:17;;;;;;;13.77;5.47;;;;;;;2.83;82.32;100330.34;5114689;28;20143;-72
2022/02/04 07:30:48;;;;;;;14.00;5.40;;;;;;;2.91;82.23;100329.25;5116842;28;20492;-71
2022/02/04 07:33:20;;;;;;;15.27;6.45;;;;;;;2.98;82.22;100328.16;5098035;28;20488;-72
2022/02/04 07:41:34;;;;;;;14.75;5.63;;;;;;;3.61;77.93;100325.44;5053341;28;20154;-71
2022/02/04 07:44:02;;;;;;;12.65;5.10;;;;;;;3.75;76.80;100319.72;5101578;28;20086;-72
2022/02/04 07:46:31;;;;;;;14.40;6.15;;;;;;;3.77;76.17;100325.84;5116584;28;20497;-71
2022/02/04 07:49:00;;;;;;;15.75;5.70;;;;;;;3.74;75.33;100321.50;5116625;28;20044;-71
2022/02/04 07:51:30;;;;;;;12.48;6.20;;;;;;;3.88;75.49;100318.44;5116645;28;20417;-71
2022/02/04 07:53:58;;;;;;;13.80;6.32;;;;;;;3.83;74.88;100312.44;5116574;28;20484;-71
2022/02/04 07:56:26;;;;;;;13.80;5.65;;;;;;;3.97;74.38;100304.97;5116287;28;20039;-71
2022/02/04 07:59:00;;;;;;;11.25;5.60;;;;;;;3.96;73.54;100311.16;5116151;28;20050;-71
2022/02/04 08:01:30;;;;;;;10.73;5.18;;;;;;;3.84;74.57;100310.66;5116579;28;20118;-71
2022/02/04 08:04:08;;;;;;;14.07;6.30;;;;;;;3.89;73.70;100317.53;5116079;28;20040;-71
2022/02/04 08:06:41;;;;;;;11.70;5.90;;;;;;;3.92;73.28;100312.13;5115855;28;20399;-71
2022/02/04 08:09:17;;;;;;;17.17;6.07;;;;;;;4.02;73.71;100316.22;5116303;28;20143;-71
2022/02/04 08:12:22;;;;;;;12.07;5.50;;;;;;;4.13;73.74;100309.72;5116570;28;20071;-71
2022/02/04 08:20:41;;;;;;;12.35;5.82;;;;;;;4.05;72.58;100303.81;5115511;28;20036;-71
2022/02/04 08:23:35;;;;;;;13.85;6.18;;;;;;;4.03;71.69;100302.09;5115548;28;20047;-71
2022/02/04 08:26:24;;;;;;;13.98;5.97;;;;;;;3.92;73.07;100306.88;5115970;28;20043;-71
2022/02/04 08:29:12;;;;;;;11.95;5.10;;;;;;;3.97;72.76;100307.59;5115790;28;20442;-71
2022/02/04 08:34:52;;;;;;;11.77;5.22;;;;;;;3.94;72.17;100291.84;5111815;28;20079;-71
2022/02/04 08:54:13;;;;;;;12.20;5.53;;;;;;;4.52;70.63;100283.75;5114652;28;20109;-71
2022/02/04 08:56:51;;;;;;;10.10;5.32;;;;;;;4.67;68.93;100283.22;5115537;28;20046;-71
2022/02/04 08:59:28;;;;;;;13.95;6.18;;;;;;;4.83;68.92;100288.81;5115106;28;20052;-71
2022/02/04 09:02:02;;;;;;;12.55;5.70;;;;;;;4.93;67.79;100279.66;5115422;28;20087;-71
2022/02/04 09:04:36;;;;;;;12.93;6.20;;;;;;;4.94;67.68;100268.16;5115052;28;20476;-71
2022/02/04 09:07:09;;;;;;;10.43;5.10;;;;;;;5.00;68.22;100267.03;5115203;28;20167;-71
2022/02/04 09:09:52;;;;;;;15.07;5.97;;;;;;;5.01;67.81;100261.69;5116285;28;20476;-70
2022/02/04 09:20:45;;;;;;;12.18;5.88;;;;;;;4.96;67.27;100274.22;5115200;28;20039;-71
2022/02/04 09:23:14;;;;;;;10.20;5.70;;;;;;;4.97;67.26;100283.88;5114517;28;20122;-72
2022/02/04 09:25:43;;;;;;;18.33;6.18;;;;;;;4.94;68.35;100293.72;5114660;28;20365;-71
2022/02/04 09:28:12;;;;;;;12.68;6.18;;;;;;;5.02;66.95;100287.25;5114126;28;20492;-71
2022/02/04 09:30:40;;;;;;;11.55;5.88;;;;;;;4.99;66.85;100291.75;5114644;28;20043;-71
2022/02/04 09:33:12;;;;;;;14.95;6.20;;;;;;;4.89;67.55;100292.09;5114700;28;20430;-71
2022/02/04 09:35:41;;;;;;;14.38;6.03;;;;;;;4.84;67.93;100296.69;5114498;28;20135;-71
2022/02/04 09:38:11;;;;;;;14.90;6.30;;;;;;;4.82;68.24;100292.34;5114201;28;20046;-71
2022/02/04 09:40:46;;;;;;;13.93;6.75;;;;;;;4.88;67.98;100282.44;5114078;28;20074;-71
2022/02/04 09:43:16;;;;;;;16.77;6.13;;;;;;;4.94;67.79;100275.22;5114189;28;20040;-72
2022/02/04 09:45:44;;;;;;;17.38;7.45;;;;;;;4.90;68.10;100274.44;5114287;28;20044;-71
2022/02/04 09:48:14;;;;;;;12.15;6.65;;;;;;;5.08;67.42;100257.03;5114132;28;20039;-72
2022/02/04 09:50:46;;;;;;;14.73;6.80;;;;;;;4.99;67.67;100258.25;5113845;28;20534;-71
2022/02/04 10:16:17;;;;;;;16.27;6.32;;;;;;;5.38;66.61;100260.31;5114000;28;20108;-71
2022/02/04 10:18:50;;;;;;;15.68;6.85;;;;;;;5.41;65.90;100249.63;5113696;28;20112;-71
2022/02/04 10:21:19;;;;;;;14.23;6.65;;;;;;;5.40;66.78;100263.75;5113734;28;20042;-68
2022/02/04 10:23:49;;;;;;;13.88;6.72;;;;;;;5.59;65.80;100262.09;5113459;28;20047;-71
2022/02/04 10:26:19;;;;;;;13.73;6.60;;;;;;;5.84;64.30;100258.50;5113656;28;20074;-71
2022/02/04 10:28:51;;;;;;;15.05;6.47;;;;;;;5.96;64.62;100250.06;5113586;28;20043;-71
2022/02/04 10:31:21;;;;;;;16.27;6.67;;;;;;;6.14;64.12;100251.97;5113443;28;20071;-72
2022/02/04 10:34:03;;;;;;;15.73;6.63;;;;;;;6.30;64.84;100247.75;5113803;28;20046;-71
2022/02/04 10:36:46;;;;;;;12.23;6.03;;;;;;;6.32;63.78;100245.03;5113283;28;20385;-71
2022/02/04 10:39:39;;;;;;;12.50;6.70;;;;;;;6.28;63.97;100254.91;5113529;28;20123;-71
2022/02/04 10:42:18;;;;;;;11.07;6.32;;;;;;;6.22;63.41;100247.22;5113643;28;20056;-71
2022/02/04 10:45:02;;;;;;;15.35;6.60;;;;;;;6.12;64.02;100247.66;5113533;28;20051;-71
2022/02/04 10:47:38;;;;;;;14.45;6.40;;;;;;;6.08;64.31;100230.16;5113432;28;20039;-71
2022/02/04 10:50:13;;;;;;;15.43;6.45;;;;;;;6.06;64.76;100230.22;5113339;28;20089;-70
2022/02/04 10:53:04;;;;;;;11.02;6.63;;;;;;;6.13;64.83;100229.06;5113472;28;20067;-71
2022/02/04 10:55:57;;;;;;;15.13;6.25;;;;;;;6.09;65.30;100234.56;5112824;28;20044;-72
2022/02/04 10:58:53;;;;;;;16.40;6.90;;;;;;;6.11;65.41;100233.56;5113179;28;20046;-72
2022/02/04 11:01:33;;;;;;;14.65;6.60;;;;;;;6.25;65.64;100227.66;5112941;28;20127;-72
2022/02/04 11:04:10;;;;;;;13.93;6.90;;;;;;;6.24;65.83;100221.50;5116783;28;20472;-71
2022/02/04 11:06:54;;;;;;;15.18;7.20;;;;;;;6.25;65.16;100222.38;5117169;28;20405;-71
2022/02/04 11:09:44;;;;;;;12.55;6.07;;;;;;;6.38;64.74;100223.59;5117342;28;20122;-72
2022/02/04 11:17:11;;;;;;;14.77;7.05;;;;;;;6.54;64.08;100218.44;5117569;28;20122;-71
2022/02/04 11:35:24;;;;;;;15.32;6.88;;;;;;;7.15;61.45;100178.56;5068624;28;20056;-71
2022/02/04 11:43:57;;;;;;;15.40;7.80;;;;;;;7.15;61.77;100163.50;5075692;28;20040;-72
2022/02/04 11:52:42;;;;;;;14.35;7.60;;;;;;;7.32;62.15;100160.00;5075472;28;20044;-71
2022/02/04 11:55:32;;;;;;;14.98;7.68;;;;;;;7.33;62.16;100161.72;5073011;28;20084;-71
2022/02/04 11:58:04;;;;;;;14.27;7.45;;;;;;;7.29;61.58;100167.28;5075611;28;20037;-71
2022/02/04 12:00:38;;;;;;;15.38;7.88;;;;;;;7.25;62.51;100158.63;5075196;28;20406;-72
2022/02/04 12:03:28;;;;;;;15.23;7.55;;;;;;;7.29;62.37;100160.16;5075444;28;20074;-71
2022/02/04 12:05:57;;;;;;;13.50;7.85;;;;;;;7.29;61.62;100160.16;5075350;28;20064;-71
2022/02/04 12:08:31;;;;;;;13.73;7.78;;;;;;;7.29;62.43;100157.53;5075265;28;20036;-72
2022/02/04 12:11:18;;;;;;;19.98;7.95;;;;;;;7.33;62.36;100151.13;5075664;28;20037;-71
2022/02/04 12:14:10;;;;;;;13.40;7.53;;;;;;;7.32;62.19;100154.72;5074687;28;20044;-71
2022/02/04 12:17:04;;;;;;;17.20;7.80;;;;;;;7.32;62.38;100145.88;5075071;28;20044;-71
2022/02/04 12:19:37;;;;;;;15.77;8.40;;;;;;;7.15;63.30;100141.41;5075078;28;20037;-71
2022/02/04 12:22:07;;;;;;;28.67;11.27;;;;;;;7.05;64.05;100130.38;5075300;28;20066;-71
2022/02/04 12:24:46;;;;;;;12.07;7.22;;;;;;;6.96;63.70;100125.53;5075153;28;20401;-72
2022/02/04 12:27:36;;;;;;;17.35;7.57;;;;;;;6.96;63.10;100119.34;5075155;28;20065;-71
2022/02/04 12:30:45;;;;;;;13.95;6.70;;;;;;;7.17;63.48;100121.84;5074799;28;20051;-71
2022/02/04 12:33:15;;;;;;;13.10;6.45;;;;;;;7.21;63.02;100135.78;5075115;28;20120;-71
2022/02/04 12:35:44;;;;;;;16.20;6.95;;;;;;;7.30;63.13;100134.50;5074885;28;20137;-71
2022/02/04 12:38:13;;;;;;;14.43;6.97;;;;;;;7.18;62.91;100125.34;5073481;28;20136;-70
2022/02/04 12:40:42;;;;;;;11.35;6.55;;;;;;;7.07;63.37;100122.34;5073339;28;20044;-72
2022/02/04 12:43:11;;;;;;;13.80;7.35;;;;;;;6.98;63.42;100122.78;5111507;28;20074;-71
2022/02/04 12:45:42;;;;;;;12.75;7.00;;;;;;;6.82;64.20;100120.00;5115020;28;20040;-71
2022/02/04 12:48:11;;;;;;;16.30;7.50;;;;;;;6.74;65.18;100119.47;5115277;28;20051;-71
2022/02/04 12:50:40;;;;;;;16.70;7.53;;;;;;;6.81;63.81;100126.22;5114845;28;20122;-71
2022/02/04 12:53:09;;;;;;;17.02;7.78;;;;;;;6.60;65.37;100112.19;5115117;28;20069;-71
2022/02/04 12:56:02;;;;;;;15.85;7.45;;;;;;;6.50;66.44;100105.59;5114649;28;20504;-72
2022/02/04 13:12:28;;;;;;;17.95;8.10;;;;;;;7.11;65.03;100100.03;5086620;28;20214;-72
2022/02/04 13:15:11;;;;;;;14.95;7.85;;;;;;;7.25;63.42;100088.78;5114761;28;20044;-71
2022/02/04 13:17:40;;;;;;;13.02;6.97;;;;;;;7.29;64.68;100093.84;5114815;28;20040;-71
2022/02/04 13:20:09;;;;;;;12.63;7.05;;;;;;;7.45;62.73;100096.59;5114480;28;20052;-71
2022/02/04 13:22:38;;;;;;;15.57;7.35;;;;;;;7.39;63.79;100094.25;5114541;28;20571;-71
2022/02/04 13:25:12;;;;;;;16.02;7.82;;;;;;;7.56;63.20;100104.03;5113976;28;20496;-71
2022/02/04 13:27:59;;;;;;;18.25;7.90;;;;;;;7.52;63.01;100094.50;5114498;28;20369;-72
2022/02/04 13:30:31;;;;;;;22.55;8.35;;;;;;;7.52;62.79;100087.38;5114549;28;20039;-71
2022/02/04 13:33:01;;;;;;;13.60;7.40;;;;;;;7.46;62.91;100087.72;5114455;28;20122;-72
2022/02/04 13:35:37;;;;;;;20.63;8.23;;;;;;;7.43;62.43;100086.06;5114562;28;20043;-71
2022/02/04 13:38:18;;;;;;;13.73;8.30;;;;;;;7.47;63.00;100082.31;5114445;28;20044;-71
2022/02/04 13:40:59;;;;;;;17.10;7.43;;;;;;;7.45;63.37;100083.34;5114144;28;20062;-71
2022/02/04 13:43:36;;;;;;;17.20;8.23;;;;;;;7.68;63.34;100088.34;5073562;28;20068;-71
2022/02/04 13:46:16;;;;;;;14.88;8.13;;;;;;;7.62;63.13;100096.59;5073643;28;20497;-71
2022/02/04 13:49:08;;;;;;;14.27;7.80;;;;;;;7.51;63.06;100090.13;5073143;28;20040;-72
2022/02/04 13:51:47;;;;;;;16.98;8.43;;;;;;;7.49;64.03;100081.38;5073466;28;20436;-72
2022/02/04 13:54:29;;;;;;;17.13;8.13;;;;;;;7.64;62.79;100091.25;5073326;28;20474;-72
2022/02/04 13:57:14;;;;;;;14.45;8.07;;;;;;;7.69;62.13;100084.75;5073385;28;20128;-72
2022/02/04 13:59:49;;;;;;;16.92;8.07;;;;;;;7.60;62.79;100079.03;5073232;28;20119;-72
2022/02/04 14:02:28;;;;;;;17.75;8.50;;;;;;;7.60;62.26;100077.25;5073227;28;20102;-71
2022/02/04 14:05:01;;;;;;;17.02;8.00;;;;;;;7.64;62.83;100084.13;5073004;28;20041;-71
2022/02/04 14:07:38;;;;;;;14.18;8.13;;;;;;;7.66;62.58;100078.75;5073059;28;20074;-71
2022/02/04 14:10:24;;;;;;;16.45;7.85;;;;;;;7.61;63.29;100083.41;5073399;28;20048;-71
2022/02/04 14:13:17;;;;;;;16.40;7.85;;;;;;;7.76;61.97;100074.69;5072905;28;20045;-71
2022/02/04 14:15:51;;;;;;;14.43;7.88;;;;;;;7.72;61.63;100068.69;5068776;28;20489;-72
2022/02/04 14:18:22;;;;;;;17.15;8.55;;;;;;;7.67;62.69;100069.84;5073664;28;20476;-71
2022/02/04 14:20:52;;;;;;;16.02;7.72;;;;;;;7.62;62.91;100071.84;5072661;28;20041;-72
2022/02/04 14:23:21;;;;;;;18.58;8.35;;;;;;;7.72;62.78;100063.38;5072643;28;20072;-71
2022/02/04 14:25:56;;;;;;;15.75;8.43;;;;;;;7.67;61.67;100064.53;5072745;28;20596;-71
2022/02/04 14:28:34;;;;;;;15.75;7.63;;;;;;;7.52;62.85;100081.22;5073115;28;20041;-71
2022/02/04 14:31:09;;;;;;;17.17;8.18;;;;;;;7.43;64.21;100072.81;5073370;28;20470;-72
2022/02/04 14:36:30;;;;;;;14.88;8.13;;;;;;;7.49;63.88;100068.97;5070237;28;20501;-71
2022/02/04 14:53:20;;;;;;;14.85;7.75;;;;;;;7.28;65.73;100070.91;5113364;28;20062;-72
2022/02/04 14:59:01;;;;;;;16.88;8.10;;;;;;;7.35;65.02;100063.50;5113460;28;20093;-71
2022/02/04 15:01:47;;;;;;;19.50;7.47;;;;;;;7.36;64.61;100071.38;5113339;28;20044;-73
2022/02/04 15:04:25;;;;;;;12.85;7.78;;;;;;;7.56;65.48;100074.84;5113481;28;20412;-71
2022/02/04 15:06:59;;;;;;;13.23;7.45;;;;;;;7.55;65.34;100067.81;5112889;28;20495;-72
2022/02/04 15:09:27;;;;;;;16.05;8.05;;;;;;;7.56;65.08;100072.19;5113412;28;20396;-72
2022/02/04 15:11:55;;;;;;;20.20;8.38;;;;;;;7.55;64.64;100066.00;5113126;28;20044;-72
2022/02/04 15:14:24;;;;;;;17.30;7.70;;;;;;;7.48;65.72;100067.25;5113226;28;20043;-71
2022/02/04 15:16:52;;;;;;;16.50;7.35;;;;;;;7.46;65.78;100066.47;5113088;28;20495;-72
2022/02/04 15:19:21;;;;;;;16.92;8.13;;;;;;;7.38;65.86;100066.00;5113242;28;20138;-72
2022/02/04 15:21:51;;;;;;;16.50;7.90;;;;;;;7.25;66.23;100063.09;5112910;28;20043;-72
2022/02/04 15:24:21;;;;;;;14.68;8.10;;;;;;;7.18;66.27;100056.38;5112946;28;20139;-72
2022/02/04 15:26:50;;;;;;;14.60;7.65;;;;;;;7.14;67.54;100070.69;5113001;28;20043;-72
2022/02/04 15:29:19;;;;;;;15.00;7.40;;;;;;;7.13;67.35;100063.69;5113195;28;20039;-72
2022/02/04 15:31:51;;;;;;;14.32;8.02;;;;;;;7.13;67.15;100076.94;5112660;28;20051;-72
2022/02/04 15:34:30;;;;;;;18.02;8.77;;;;;;;7.05;69.35;100071.19;5113360;28;20381;-71
2022/02/04 15:36:58;;;;;;;17.73;8.38;;;;;;;6.95;69.36;100067.22;5113198;28;20043;-72
2022/02/04 15:39:29;;;;;;;22.15;8.60;;;;;;;6.84;71.21;100073.03;5113017;28;20040;-72
2022/02/04 15:42:03;;;;;;;14.75;8.57;;;;;;;6.75;70.15;100073.47;5112691;28;20047;-71
2022/02/04 15:44:41;;;;;;;18.63;8.88;;;;;;;6.65;69.88;100066.91;5095005;28;20059;-71
2022/02/04 15:47:26;;;;;;;13.30;7.93;;;;;;;6.55;72.48;100072.63;5112837;28;20535;-71
2022/02/04 15:50:06;;;;;;;16.30;7.78;;;;;;;6.52;69.98;100071.91;5115640;28;20085;-72
2022/02/04 15:53:01;;;;;;;16.40;7.72;;;;;;;6.54;72.12;100080.66;5116320;28;20043;-71
2022/02/04 15:55:57;;;;;;;17.02;8.00;;;;;;;6.54;69.72;100075.34;5116701;28;20075;-71
2022/02/04 15:58:42;;;;;;;19.30;8.50;;;;;;;6.49;69.61;100078.22;5116633;28;20075;-71
2022/02/04 16:01:25;;;;;;;18.65;8.95;;;;;;;6.57;67.75;100080.53;5116529;28;20485;-71
2022/02/04 16:04:00;;;;;;;16.43;9.00;;;;;;;6.41;70.23;100076.84;5116024;28;20127;-72
2022/02/04 16:06:30;;;;;;;15.60;7.80;;;;;;;6.43;69.42;100078.50;5116465;28;20275;-71
2022/02/04 16:08:58;;;;;;;15.57;7.85;;;;;;;6.36;70.96;100082.34;5116098;28;20070;-72
2022/02/04 16:11:49;;;;;;;17.98;8.07;;;;;;;6.40;69.38;100088.38;5116025;28;20447;-71
2022/02/04 16:14:21;;;;;;;15.32;7.65;;;;;;;6.36;71.10;100082.34;5116350;28;20043;-71
2022/02/04 16:16:54;;;;;;;19.60;8.03;;;;;;;6.26;71.76;100089.00;5116056;28;20096;-72
2022/02/04 16:19:37;;;;;;;17.95;8.05;;;;;;;6.20;71.24;100087.50;5116031;28;20142;-71